National Weather Service United States Department of Commerce

Heavy Rain And Flood Threat Continues For California, Critical Fire Weather Over The Plains, Wintry Conditions For The Midwest

Active weather pattern will continue across the U.S. into the weekend. Heavy rain with the continued risk of burn scar flooding will persist into Friday over central and southern California. Over the Plains and Desert Southwest, dry conditions will lead to extremely critical fire weather into Saturday. Another storm will produce snow and ice from the Plains to the Midwest into the weekend. Read More >

Daily Weather Briefing
Prepared: 3/22/18 8:30 PM by: WN valid for 12 hours
High pressure will continue to build over ZTL, producing VFR conditions under mostly clear skies. Surface winds will be northwest at 5-7kts. Flight Hazards: LGT-MOD Turbulence at all altitudes over VA/TN/AL/GA.

Altimeters will be above 29.92ins over all of ZTL. CIGS/VIS at/below 050/5SM are not expected. Restricted Area Convection: R2102...None. R3002...None. R3004...None.

FTUS80 KATL 230521 RRA
KATL 230520Z 2306/2412 32005KT P6SM SKC
     FM230900 32004KT P6SM FEW150
     FM231500 31006KT P6SM BKN100
     FM232000 30010KT P6SM BKN070
     FM240500 12004KT P6SM BKN100

        Go to KATL TAF TDA                Go to KCLT TAF TDA
        Go to KATL TAF TDA                 Go to KCLT TAF TDA
FTUS80 KCLT 230536
KCLT 230533Z 2306/2412 33003KT P6SM SKC
     FM231300 33005KT P6SM FEW250
     FM231700 29009G16KT P6SM SCT250
     FM232200 34005KT P6SM BKN250
     FM240800 VRB03KT P6SM OVC080

ATL Convective Gates Convective Gate Forecast


CLT Convective Gates Convective Gate Forecast
Radar/PIREPs/Icing & Turbulence Airmets and Sigmets/CWAs
PIREP TDA Southeast Radar Loop Weather Map
Weather Map

6 hour forecast winds


Weather Briefing from ZTL Atlanta on Vimeo or Download MP4 file PreDutyWeatherBriefing.mp4.